Time;durP1;ratioP1;P1;durP2;ratioP2;P2;SDS_P1;SDS_P2;PMS_P1;PMS_P2;Temp;Humidity;BMP_temperature;BMP_pressure;BME280_temperature;BME280_humidity;BME280_pressure;Samples;Min_cycle;Max_cycle;Signal;HPM_P1;HPM_P2
2023/01/06 00:01:28;;;;;;;4.17;0.60;;;17.20;99.90;;;;;;5040507;28;20473;-63
2023/01/06 00:03:59;;;;;;;4.72;0.70;;;17.20;99.90;;;;;;5042565;28;20018;-63
2023/01/06 00:06:29;;;;;;;6.15;0.60;;;17.20;99.90;;;;;;5039174;28;20056;-62
2023/01/06 00:09:02;;;;;;;0.50;0.30;;;17.20;99.90;;;;;;5037326;28;20029;-63
2023/01/06 00:11:30;;;;;;;1.17;0.43;;;17.30;99.90;;;;;;5038395;28;20453;-64
2023/01/06 00:13:58;;;;;;;0.30;0.28;;;17.40;99.90;;;;;;5039594;28;20534;-64
2023/01/06 00:16:25;;;;;;;3.30;0.40;;;17.40;99.90;;;;;;5040141;28;20028;-64
2023/01/06 00:18:59;;;;;;;1.23;0.30;;;17.30;99.90;;;;;;5038567;28;20433;-67
2023/01/06 00:21:27;;;;;;;0.57;0.30;;;17.10;99.90;;;;;;5038752;28;20026;-65
2023/01/06 00:23:55;;;;;;;2.35;0.70;;;17.10;99.90;;;;;;5038140;28;20060;-63
2023/01/06 00:26:22;;;;;;;1.75;0.40;;;17.20;99.90;;;;;;5039723;28;20079;-64
2023/01/06 00:28:56;;;;;;;4.10;0.80;;;17.40;99.90;;;;;;5039763;28;20028;-66
2023/01/06 00:31:23;;;;;;;2.83;0.30;;;17.50;99.90;;;;;;5041483;28;20033;-64
2023/01/06 00:33:51;;;;;;;1.17;0.38;;;17.40;99.90;;;;;;5039139;28;20393;-65
2023/01/06 00:36:20;;;;;;;1.65;0.63;;;17.40;99.90;;;;;;5039975;28;20068;-64
2023/01/06 00:38:49;;;;;;;0.85;0.40;;;17.40;99.90;;;;;;5035845;28;20033;-64
2023/01/06 00:44:02;;;;;;;0.43;0.20;;;17.20;99.90;;;;;;5037842;28;20036;-65
2023/01/06 00:46:32;;;;;;;2.78;0.43;;;17.10;99.90;;;;;;5038211;28;20033;-64
2023/01/06 00:49:01;;;;;;;2.72;0.50;;;17.10;99.90;;;;;;5036789;28;20038;-65
2023/01/06 00:51:28;;;;;;;2.25;0.52;;;17.10;99.90;;;;;;5038860;28;20025;-65
2023/01/06 00:53:55;;;;;;;1.25;0.60;;;17.10;99.90;;;;;;5037182;28;20021;-67
2023/01/06 00:56:22;;;;;;;3.67;0.98;;;17.10;99.90;;;;;;5037752;28;20060;-69
2023/01/06 00:58:50;;;;;;;2.95;1.13;;;17.00;99.90;;;;;;5036952;28;20021;-70
2023/01/06 01:01:17;;;;;;;5.18;2.22;;;17.10;99.90;;;;;;5040259;28;21416;-66
2023/01/06 01:03:44;;;;;;;1.77;1.00;;;17.10;99.90;;;;;;5034869;28;20079;-66
2023/01/06 01:06:11;;;;;;;3.15;0.90;;;17.20;99.90;;;;;;5033659;28;20512;-67
2023/01/06 01:08:39;;;;;;;2.40;0.77;;;17.30;99.90;;;;;;5035162;28;20386;-67
2023/01/06 01:12:08;;;;;;;1.38;0.70;;;17.40;99.90;;;;;;5034112;28;20032;-66
2023/01/06 01:13:58;;;;;;;1.98;0.60;;;17.40;99.90;;;;;;5037626;28;20561;-66
2023/01/06 01:16:25;;;;;;;3.03;0.88;;;17.50;99.90;;;;;;5039262;28;20112;-66
2023/01/06 01:18:52;;;;;;;4.93;0.70;;;17.40;99.90;;;;;;5036848;28;20028;-65
2023/01/06 01:21:20;;;;;;;1.08;0.60;;;17.40;99.90;;;;;;5038819;28;20049;-63
2023/01/06 01:23:47;;;;;;;4.13;0.73;;;17.40;99.90;;;;;;5036474;28;20087;-63
2023/01/06 01:26:14;;;;;;;2.72;0.85;;;17.40;99.90;;;;;;5037852;28;20032;-63
2023/01/06 01:28:42;;;;;;;2.00;0.95;;;17.50;99.90;;;;;;5031011;28;20042;-63
2023/01/06 01:31:09;;;;;;;1.40;0.50;;;17.60;99.90;;;;;;5035336;28;20020;-63
2023/01/06 01:33:37;;;;;;;3.58;0.70;;;17.60;99.90;;;;;;5038437;28;20104;-63
2023/01/06 01:36:08;;;;;;;0.90;0.40;;;17.70;99.90;;;;;;5038612;28;20037;-65
2023/01/06 01:38:36;;;;;;;2.95;0.93;;;17.90;99.90;;;;;;5034577;28;20036;-63
2023/01/06 01:41:04;;;;;;;1.02;0.47;;;18.00;99.90;;;;;;5041781;28;20052;-64
2023/01/06 01:43:45;;;;;;;2.22;0.50;;;18.20;99.90;;;;;;5048181;28;20029;-64
2023/01/06 01:46:17;;;;;;;2.85;0.50;;;18.30;99.90;;;;;;5049044;28;20111;-64
2023/01/06 01:48:45;;;;;;;3.97;1.67;;;18.20;99.90;;;;;;5035453;28;20037;-64
2023/01/06 01:51:16;;;;;;;1.50;0.65;;;18.20;99.90;;;;;;5048980;28;20110;-63
2023/01/06 01:53:49;;;;;;;3.20;0.50;;;18.40;99.90;;;;;;5046622;28;20029;-64
2023/01/06 01:56:32;;;;;;;1.42;0.60;;;18.50;99.90;;;;;;5041994;28;20017;-63
2023/01/06 01:59:08;;;;;;;2.88;0.60;;;18.50;99.90;;;;;;5044198;28;20048;-66
2023/01/06 02:01:35;;;;;;;2.83;0.70;;;18.50;99.90;;;;;;5041909;28;20017;-65
2023/01/06 02:04:03;;;;;;;1.17;0.57;;;18.50;99.90;;;;;;5039548;28;20505;-64
2023/01/06 02:06:31;;;;;;;5.82;0.90;;;18.30;99.90;;;;;;5046135;28;20029;-64
2023/01/06 02:09:04;;;;;;;2.40;0.70;;;18.10;99.90;;;;;;5054967;28;20044;-63
2023/01/06 02:11:35;;;;;;;5.05;1.33;;;18.00;99.90;;;;;;5041139;28;20017;-62
2023/01/06 02:14:24;;;;;;;3.90;0.93;;;17.80;99.90;;;;;;5041869;28;20032;-62
2023/01/06 02:17:03;;;;;;;3.05;0.80;;;17.80;99.90;;;;;;5047713;28;20029;-63
2023/01/06 02:19:57;;;;;;;4.35;1.00;;;17.80;99.90;;;;;;5052393;28;20020;-63
2023/01/06 02:22:52;;;;;;;2.90;1.20;;;17.90;99.90;;;;;;5052765;28;20024;-64
2023/01/06 02:25:58;;;;;;;4.35;1.25;;;18.00;99.90;;;;;;5038139;28;20620;-64
2023/01/06 02:28:37;;;;;;;3.47;0.60;;;18.10;99.90;;;;;;5044635;28;20032;-64
2023/01/06 02:31:31;;;;;;;5.82;0.80;;;18.20;99.90;;;;;;5032540;28;20108;-64
2023/01/06 02:34:19;;;;;;;4.47;1.00;;;18.30;99.90;;;;;;5031032;28;20080;-63
2023/01/06 02:36:58;;;;;;;1.65;0.63;;;18.30;99.90;;;;;;5033995;28;20109;-63
2023/01/06 02:39:42;;;;;;;2.15;0.60;;;18.40;99.90;;;;;;5032035;28;20024;-63
2023/01/06 02:42:29;;;;;;;1.48;0.68;;;18.30;99.90;;;;;;5032063;28;20030;-63
2023/01/06 02:45:08;;;;;;;1.23;0.50;;;18.40;99.90;;;;;;5044942;28;20029;-64
2023/01/06 02:47:49;;;;;;;2.63;1.13;;;18.60;99.90;;;;;;5031858;28;20486;-64
2023/01/06 02:50:21;;;;;;;1.55;0.65;;;18.80;99.90;;;;;;5032055;28;20049;-64
2023/01/06 02:53:20;;;;;;;0.73;0.28;;;18.90;99.90;;;;;;5032595;28;20040;-64
2023/01/06 02:55:50;;;;;;;1.88;0.63;;;18.90;99.90;;;;;;5043520;28;20045;-64
2023/01/06 02:58:44;;;;;;;1.60;0.60;;;18.90;99.90;;;;;;5051990;28;20070;-63
2023/01/06 03:01:13;;;;;;;0.30;0.22;;;18.90;99.90;;;;;;5040182;28;20032;-64
2023/01/06 03:03:44;;;;;;;2.17;0.50;;;19.00;99.90;;;;;;5039464;28;20025;-65
2023/01/06 03:06:19;;;;;;;3.33;0.70;;;19.00;99.90;;;;;;5038870;28;20021;-64
2023/01/06 03:08:49;;;;;;;4.45;0.70;;;19.20;99.90;;;;;;5050252;28;20069;-64
2023/01/06 03:11:16;;;;;;;1.15;0.52;;;19.70;99.90;;;;;;5050603;28;20568;-64
2023/01/06 03:13:58;;;;;;;2.92;0.50;;;19.90;99.90;;;;;;5047770;28;20029;-64
2023/01/06 03:16:26;;;;;;;1.90;0.50;;;19.90;99.90;;;;;;5047085;28;20513;-64
2023/01/06 03:18:55;;;;;;;3.17;1.08;;;19.80;99.90;;;;;;5050777;28;20131;-63
2023/01/06 03:21:26;;;;;;;4.00;0.60;;;19.70;99.90;;;;;;5043007;28;20064;-63
2023/01/06 03:23:54;;;;;;;0.90;0.50;;;19.70;99.90;;;;;;5039776;28;20116;-64
2023/01/06 03:26:27;;;;;;;2.50;0.60;;;19.60;99.90;;;;;;5051770;28;20394;-64
2023/01/06 03:28:54;;;;;;;4.07;0.70;;;19.50;99.90;;;;;;5036064;28;20418;-64
2023/01/06 03:31:31;;;;;;;2.05;0.55;;;19.50;99.90;;;;;;5043340;28;20051;-64
2023/01/06 03:34:10;;;;;;;2.58;0.50;;;19.40;99.90;;;;;;5044254;28;20024;-63
2023/01/06 03:37:11;;;;;;;1.90;0.52;;;19.50;99.90;;;;;;5032989;28;20095;-64
2023/01/06 03:39:56;;;;;;;2.80;0.98;;;19.40;99.90;;;;;;5050713;28;20028;-65
2023/01/06 03:45:49;;;;;;;2.13;0.70;;;19.30;99.90;;;;;;5038993;28;20113;-64
2023/01/06 03:48:28;;;;;;;2.28;0.70;;;19.30;99.90;;;;;;5046113;28;20396;-66
2023/01/06 03:51:05;;;;;;;1.05;0.40;;;19.50;99.90;;;;;;5047803;28;20090;-66
2023/01/06 03:54:03;;;;;;;2.97;0.50;;;19.90;99.90;;;;;;5050708;28;20021;-64
2023/01/06 03:56:44;;;;;;;1.45;0.65;;;20.00;99.90;;;;;;5048401;28;20048;-64
2023/01/06 03:59:20;;;;;;;3.85;1.00;;;20.10;99.90;;;;;;5043226;28;20073;-65
2023/01/06 04:01:49;;;;;;;4.72;1.10;;;20.00;99.90;;;;;;5044628;28;20474;-64
2023/01/06 04:04:17;;;;;;;4.25;1.00;;;19.90;99.90;;;;;;5049312;28;20021;-65
2023/01/06 04:06:45;;;;;;;6.43;0.90;;;19.80;99.90;;;;;;5049916;28;20036;-64
2023/01/06 04:09:12;;;;;;;5.40;1.05;;;19.60;99.90;;;;;;5049941;28;20088;-64
2023/01/06 04:14:25;;;;;;;3.75;1.02;;;18.80;99.90;;;;;;5030484;28;20485;-63
2023/01/06 04:16:52;;;;;;;3.05;0.85;;;18.60;99.90;;;;;;5047725;28;20013;-64
2023/01/06 04:19:20;;;;;;;11.18;1.20;;;18.30;99.90;;;;;;5044187;28;20021;-64
2023/01/06 04:21:47;;;;;;;8.60;1.52;;;18.30;99.90;;;;;;5033548;28;20846;-64
2023/01/06 04:24:14;;;;;;;9.93;1.30;;;18.20;99.90;;;;;;5046052;28;20627;-64
2023/01/06 04:26:41;;;;;;;7.20;1.23;;;18.20;99.90;;;;;;5050005;28;20025;-64
2023/01/06 04:29:09;;;;;;;8.05;1.30;;;18.10;99.90;;;;;;5041947;28;20067;-65
2023/01/06 04:31:36;;;;;;;8.60;1.75;;;18.20;99.90;;;;;;5030295;28;20029;-64
2023/01/06 04:34:03;;;;;;;8.70;2.40;;;18.10;99.90;;;;;;5031245;28;20026;-66
2023/01/06 04:36:31;;;;;;;8.68;2.20;;;18.00;99.90;;;;;;5059444;28;20020;-66
2023/01/06 04:38:58;;;;;;;4.53;1.50;;;18.10;99.90;;;;;;5050409;28;20043;-66
2023/01/06 04:41:25;;;;;;;8.13;1.45;;;18.10;99.90;;;;;;5050133;28;20362;-65
2023/01/06 04:43:52;;;;;;;6.93;1.35;;;18.10;99.90;;;;;;5045736;28;20108;-64
2023/01/06 04:46:20;;;;;;;9.18;1.40;;;18.00;99.90;;;;;;5031761;28;20123;-65
2023/01/06 04:48:47;;;;;;;9.05;2.10;;;17.90;99.90;;;;;;5054383;28;20028;-64
2023/01/06 04:51:14;;;;;;;9.48;2.42;;;17.90;99.90;;;;;;5041649;28;20130;-64
2023/01/06 04:53:42;;;;;;;6.45;1.67;;;17.90;99.90;;;;;;5029790;28;20212;-63
2023/01/06 04:56:12;;;;;;;11.15;2.45;;;17.90;99.90;;;;;;5037725;28;20036;-64
2023/01/06 04:58:40;;;;;;;11.43;3.50;;;17.90;99.90;;;;;;5042552;28;20024;-63
2023/01/06 05:01:10;;;;;;;10.32;2.20;;;17.90;99.90;;;;;;5037883;28;20039;-61
2023/01/06 05:03:38;;;;;;;18.20;2.40;;;17.80;99.90;;;;;;5038406;28;20021;-66
2023/01/06 05:06:08;;;;;;;12.52;2.08;;;17.80;99.90;;;;;;5035608;28;20025;-67
2023/01/06 05:08:37;;;;;;;15.82;2.58;;;17.80;99.90;;;;;;5029722;28;20045;-68
2023/01/06 05:11:10;;;;;;;15.85;2.22;;;17.70;99.90;;;;;;5029903;28;20043;-68
2023/01/06 05:13:38;;;;;;;17.58;2.80;;;17.60;99.90;;;;;;5047259;28;20021;-68
2023/01/06 05:16:10;;;;;;;15.13;2.55;;;17.50;99.90;;;;;;5042435;28;20017;-67
2023/01/06 05:18:38;;;;;;;10.05;2.13;;;17.40;99.90;;;;;;5047848;28;20025;-67
2023/01/06 05:21:05;;;;;;;11.60;2.28;;;17.40;99.90;;;;;;5032260;28;20494;-67
2023/01/06 05:23:32;;;;;;;13.95;2.80;;;17.40;99.90;;;;;;5032587;28;20104;-68
2023/01/06 05:25:59;;;;;;;8.70;2.55;;;17.40;99.90;;;;;;5047550;28;20021;-67
2023/01/06 05:28:28;;;;;;;9.35;2.30;;;17.60;99.90;;;;;;5048269;28;20021;-65
2023/01/06 05:31:03;;;;;;;9.57;1.63;;;17.60;99.90;;;;;;5049212;28;20121;-68
2023/01/06 05:33:32;;;;;;;9.32;1.80;;;17.90;99.90;;;;;;5041554;28;20014;-68
2023/01/06 05:36:14;;;;;;;5.97;1.73;;;18.10;99.90;;;;;;5041486;28;20032;-65
2023/01/06 05:38:42;;;;;;;7.93;2.10;;;18.30;99.90;;;;;;5039928;28;20021;-66
2023/01/06 05:41:09;;;;;;;5.80;2.17;;;18.30;99.90;;;;;;5069564;28;20056;-67
2023/01/06 05:43:37;;;;;;;6.88;1.25;;;18.30;99.90;;;;;;5064800;28;20031;-66
2023/01/06 05:46:06;;;;;;;11.63;2.70;;;18.20;99.90;;;;;;5049249;28;20018;-66
2023/01/06 05:48:34;;;;;;;9.38;1.42;;;17.90;99.90;;;;;;5032061;28;20095;-65
2023/01/06 05:51:09;;;;;;;6.97;1.73;;;17.80;99.90;;;;;;5035281;28;20132;-66
2023/01/06 05:53:39;;;;;;;11.02;1.73;;;17.70;99.90;;;;;;5062433;28;20032;-65
2023/01/06 05:56:09;;;;;;;9.57;1.40;;;17.70;99.90;;;;;;5042885;28;20029;-67
2023/01/06 05:58:39;;;;;;;6.78;1.58;;;17.80;99.90;;;;;;5049290;28;20025;-67
2023/01/06 06:01:13;;;;;;;11.90;2.58;;;17.90;99.90;;;;;;5048393;28;20068;-66
2023/01/06 06:03:40;;;;;;;;;;;18.00;99.90;;;;;;5048160;28;20021;-66
2023/01/06 06:06:07;;;;;;;9.52;2.20;;;18.10;99.90;;;;;;5047626;28;20430;-65
2023/01/06 06:08:34;;;;;;;10.70;1.90;;;18.10;99.90;;;;;;5048797;28;20086;-66
2023/01/06 06:11:06;;;;;;;9.20;1.20;;;18.20;99.90;;;;;;5042188;28;20037;-67
2023/01/06 06:13:34;;;;;;;7.53;1.70;;;18.40;99.90;;;;;;5028900;28;20482;-68
2023/01/06 06:16:12;;;;;;;9.98;1.50;;;18.60;99.90;;;;;;5040329;28;20040;-67
2023/01/06 06:18:44;;;;;;;6.57;1.27;;;18.90;99.90;;;;;;5044074;28;20070;-67
2023/01/06 06:21:14;;;;;;;9.95;1.50;;;19.10;99.90;;;;;;5029284;28;20034;-66
2023/01/06 06:23:41;;;;;;;12.43;1.65;;;19.10;99.90;;;;;;5039155;28;20421;-66
2023/01/06 06:26:10;;;;;;;15.52;1.58;;;18.90;99.90;;;;;;5048761;28;20103;-64
2023/01/06 06:28:39;;;;;;;7.10;1.67;;;18.60;99.90;;;;;;5041421;28;20021;-64
2023/01/06 06:31:09;;;;;;;6.53;2.03;;;18.30;99.90;;;;;;5048252;28;20059;-64
2023/01/06 06:33:37;;;;;;;7.60;1.95;;;18.10;99.90;;;;;;5048622;28;20394;-67
2023/01/06 06:36:05;;;;;;;10.65;2.45;;;18.00;99.90;;;;;;5050802;28;20029;-67
2023/01/06 06:38:33;;;;;;;8.77;1.95;;;18.00;99.90;;;;;;5037163;28;20025;-63
2023/01/06 06:41:00;;;;;;;10.75;1.50;;;18.00;99.90;;;;;;5042568;28;20032;-66
2023/01/06 06:43:28;;;;;;;8.68;1.33;;;18.10;99.90;;;;;;5045758;28;20045;-67
2023/01/06 06:45:55;;;;;;;3.72;0.75;;;18.20;99.90;;;;;;5039683;28;20027;-68
2023/01/06 06:48:22;;;;;;;5.72;0.98;;;18.30;99.90;;;;;;5036387;28;20026;-66
2023/01/06 06:51:04;;;;;;;5.78;1.90;;;18.30;99.90;;;;;;5034290;28;20048;-67
2023/01/06 06:53:33;;;;;;;5.80;1.35;;;18.50;99.90;;;;;;5047025;28;20021;-66
2023/01/06 06:56:01;;;;;;;9.00;1.33;;;18.50;99.90;;;;;;5053891;28;20021;-66
2023/01/06 06:58:28;;;;;;;6.07;1.52;;;18.50;99.90;;;;;;5039758;28;20215;-66
2023/01/06 07:00:56;;;;;;;6.07;0.88;;;18.30;99.90;;;;;;5046978;28;20458;-65
2023/01/06 07:03:24;;;;;;;6.90;1.45;;;18.10;99.90;;;;;;5036858;28;20116;-67
2023/01/06 07:05:53;;;;;;;2.92;0.90;;;18.00;99.90;;;;;;5044227;28;20378;-64
2023/01/06 07:08:20;;;;;;;4.72;0.80;;;17.90;99.90;;;;;;5045729;28;20025;-65
2023/01/06 07:10:47;;;;;;;7.15;1.13;;;17.90;99.90;;;;;;5041379;28;20080;-66
2023/01/06 07:13:14;;;;;;;10.15;1.60;;;17.90;99.90;;;;;;5038995;28;20120;-66
2023/01/06 07:15:42;;;;;;;5.38;0.90;;;18.00;99.90;;;;;;5047695;28;20079;-65
2023/01/06 07:18:09;;;;;;;4.85;1.00;;;18.00;99.90;;;;;;5037308;28;20045;-66
2023/01/06 07:20:37;;;;;;;6.97;0.90;;;18.10;99.90;;;;;;5039482;28;20051;-64
2023/01/06 07:23:05;;;;;;;7.72;0.95;;;18.20;99.90;;;;;;5041972;28;20486;-65
2023/01/06 07:25:32;;;;;;;5.13;0.75;;;18.20;99.90;;;;;;5047257;28;20024;-64
2023/01/06 07:28:05;;;;;;;6.82;0.80;;;18.30;99.90;;;;;;5043583;28;20550;-66
2023/01/06 07:30:34;;;;;;;3.83;0.85;;;18.30;99.90;;;;;;5031817;28;20041;-65
2023/01/06 07:33:01;;;;;;;3.67;0.70;;;18.30;99.90;;;;;;5038088;28;20481;-64
2023/01/06 07:35:29;;;;;;;3.78;0.75;;;18.40;99.90;;;;;;5032485;28;20148;-64
2023/01/06 07:38:02;;;;;;;5.70;0.93;;;18.40;99.90;;;;;;5049024;28;20681;-64
2023/01/06 07:40:30;;;;;;;5.88;1.17;;;18.30;99.90;;;;;;5033843;28;20026;-66
2023/01/06 07:42:57;;;;;;;6.53;1.13;;;18.30;99.90;;;;;;5032666;28;20033;-66
2023/01/06 07:45:25;;;;;;;5.47;0.80;;;18.20;99.90;;;;;;5046289;28;20039;-66
2023/01/06 07:47:52;;;;;;;7.65;0.98;;;18.20;99.90;;;;;;5047933;28;20021;-66
2023/01/06 07:50:19;;;;;;;3.67;0.95;;;18.20;99.90;;;;;;5042018;28;20132;-66
2023/01/06 07:52:46;;;;;;;4.82;1.08;;;18.20;99.90;;;;;;5038981;28;20182;-66
2023/01/06 07:55:14;;;;;;;6.60;2.00;;;18.20;99.90;;;;;;5039451;28;20025;-65
2023/01/06 07:57:42;;;;;;;6.30;2.15;;;18.20;99.90;;;;;;5031506;28;20025;-66
2023/01/06 08:00:10;;;;;;;7.47;2.05;;;18.20;99.90;;;;;;5044669;28;20440;-65
2023/01/06 08:02:37;;;;;;;7.80;1.20;;;18.20;99.90;;;;;;5035903;28;20021;-66
2023/01/06 08:05:07;;;;;;;4.28;1.10;;;18.20;99.90;;;;;;5036155;28;20063;-66
2023/01/06 08:07:35;;;;;;;4.85;0.93;;;18.10;99.90;;;;;;5035638;28;20025;-66
2023/01/06 08:10:02;;;;;;;4.15;0.90;;;18.10;99.90;;;;;;5037034;28;20048;-64
2023/01/06 08:12:30;;;;;;;8.35;1.30;;;18.10;99.90;;;;;;5031338;28;20026;-66
2023/01/06 08:15:00;;;;;;;4.68;1.17;;;18.00;99.90;;;;;;5041337;28;20517;-67
2023/01/06 08:17:31;;;;;;;15.07;1.75;;;18.00;99.90;;;;;;5042356;28;20037;-65
2023/01/06 08:19:58;;;;;;;5.78;1.30;;;18.00;99.90;;;;;;5041046;28;20021;-65
2023/01/06 08:22:26;;;;;;;9.50;1.40;;;18.00;99.90;;;;;;5037831;28;20405;-66
2023/01/06 08:24:53;;;;;;;8.48;1.10;;;17.90;99.90;;;;;;5033609;28;20398;-66
2023/01/06 08:27:21;;;;;;;9.38;1.15;;;17.90;99.90;;;;;;5028038;28;20029;-66
2023/01/06 08:29:50;;;;;;;13.30;1.55;;;17.90;99.90;;;;;;5038328;28;20127;-66
2023/01/06 08:32:18;;;;;;;5.07;1.33;;;17.90;99.90;;;;;;5029129;28;20021;-66
2023/01/06 08:34:45;;;;;;;6.00;1.33;;;18.00;99.90;;;;;;5035115;28;20033;-66
2023/01/06 08:37:13;;;;;;;5.10;1.42;;;17.90;99.90;;;;;;5035362;28;20021;-67
2023/01/06 08:39:40;;;;;;;7.55;1.20;;;17.90;99.90;;;;;;5032413;28;20041;-67
2023/01/06 08:42:07;;;;;;;5.75;1.30;;;17.90;99.90;;;;;;5027531;28;20025;-62
2023/01/06 08:44:34;;;;;;;9.15;1.10;;;17.90;99.90;;;;;;5027580;28;20514;-63
2023/01/06 08:47:02;;;;;;;5.80;1.27;;;17.80;99.90;;;;;;5027190;28;20061;-68
2023/01/06 08:49:29;;;;;;;14.45;2.17;;;17.80;99.90;;;;;;5030600;28;20052;-66
2023/01/06 08:51:56;;;;;;;6.68;2.78;;;17.80;99.90;;;;;;5037414;28;20025;-66
2023/01/06 08:54:23;;;;;;;6.28;1.30;;;17.80;99.90;;;;;;5033663;28;20479;-67
2023/01/06 08:56:51;;;;;;;10.30;1.60;;;17.80;99.90;;;;;;5031561;28;20037;-65
2023/01/06 08:59:18;;;;;;;6.93;1.40;;;17.80;99.90;;;;;;5030016;28;20037;-64
2023/01/06 09:01:45;;;;;;;11.00;2.08;;;17.80;99.90;;;;;;5033046;28;20857;-65
2023/01/06 09:04:13;;;;;;;8.63;1.90;;;17.80;99.90;;;;;;5028793;28;20075;-64
2023/01/06 09:06:42;;;;;;;6.80;1.20;;;17.70;99.90;;;;;;5032228;28;20060;-66
2023/01/06 09:09:13;;;;;;;8.70;1.50;;;17.70;99.90;;;;;;5033410;28;20029;-64
2023/01/06 09:11:42;;;;;;;8.27;1.42;;;17.70;99.90;;;;;;5028043;28;20420;-65
2023/01/06 09:14:10;;;;;;;8.93;1.65;;;17.70;99.90;;;;;;5033811;28;20025;-65
2023/01/06 09:16:37;;;;;;;9.57;1.25;;;17.70;99.90;;;;;;5031293;28;20025;-65
2023/01/06 09:19:04;;;;;;;9.40;1.63;;;17.70;99.90;;;;;;5033831;28;20024;-65
2023/01/06 09:21:32;;;;;;;9.30;2.22;;;17.70;99.90;;;;;;5034290;28;20018;-64
2023/01/06 09:23:59;;;;;;;9.65;1.15;;;17.70;99.90;;;;;;5028144;28;20083;-65
2023/01/06 09:26:26;;;;;;;13.95;2.00;;;17.70;99.90;;;;;;5030378;28;20079;-64
2023/01/06 09:28:54;;;;;;;6.57;1.02;;;17.70;99.90;;;;;;5030132;28;20037;-66
2023/01/06 09:31:21;;;;;;;9.43;1.45;;;17.70;99.90;;;;;;5033824;28;20557;-64
2023/01/06 09:33:48;;;;;;;6.55;2.50;;;17.70;99.90;;;;;;5031375;28;20048;-65
2023/01/06 09:36:15;;;;;;;8.35;2.05;;;17.70;99.90;;;;;;5033291;28;20121;-64
2023/01/06 09:38:43;;;;;;;7.15;1.48;;;17.70;99.90;;;;;;5033513;28;20087;-65
2023/01/06 09:41:48;;;;;;;11.32;2.03;;;17.70;99.90;;;;;;5033925;28;20018;-66
2023/01/06 09:44:30;;;;;;;6.03;1.58;;;17.70;99.90;;;;;;5031000;28;20484;-67
2023/01/06 09:47:00;;;;;;;9.90;1.90;;;17.70;99.90;;;;;;5031185;28;20026;-65
2023/01/06 09:49:49;;;;;;;11.98;1.60;;;17.70;99.90;;;;;;5031761;28;20041;-65
2023/01/06 09:52:39;;;;;;;11.80;1.98;;;17.70;99.90;;;;;;5031250;28;20034;-65
2023/01/06 09:55:14;;;;;;;11.02;3.00;;;17.70;99.90;;;;;;5033476;28;20056;-65
2023/01/06 09:57:51;;;;;;;9.77;3.08;;;17.70;99.90;;;;;;5033553;28;20040;-65
2023/01/06 10:00:37;;;;;;;11.18;1.35;;;17.60;99.90;;;;;;5034263;28;20071;-65
2023/01/06 10:03:09;;;;;;;12.90;2.50;;;17.60;99.90;;;;;;5033711;28;20049;-64
2023/01/06 10:05:58;;;;;;;7.70;1.73;;;17.60;99.90;;;;;;5034389;28;20028;-66
2023/01/06 10:08:57;;;;;;;10.38;1.42;;;17.60;99.90;;;;;;5034125;28;20135;-65
2023/01/06 10:11:33;;;;;;;9.13;1.70;;;17.60;99.90;;;;;;5036307;28;20402;-65
2023/01/06 10:14:22;;;;;;;6.78;2.40;;;17.60;99.90;;;;;;5037150;28;20028;-65
2023/01/06 10:17:04;;;;;;;7.63;2.40;;;17.50;99.90;;;;;;5038103;28;20976;-65
2023/01/06 10:19:52;;;;;;;6.93;1.27;;;17.40;99.90;;;;;;5038130;28;20029;-66
2023/01/06 10:22:36;;;;;;;11.70;1.38;;;17.40;99.90;;;;;;5035909;28;20041;-64
2023/01/06 10:25:18;;;;;;;9.40;1.75;;;17.40;99.90;;;;;;5036605;28;20081;-65
2023/01/06 10:28:18;;;;;;;7.63;1.50;;;17.50;99.90;;;;;;5039015;28;20634;-64
2023/01/06 10:30:52;;;;;;;10.15;2.20;;;17.50;99.90;;;;;;5037444;28;20640;-63
2023/01/06 10:33:23;;;;;;;6.72;2.22;;;17.50;99.90;;;;;;5036800;28;20030;-65
2023/01/06 10:35:52;;;;;;;9.98;1.60;;;17.60;99.90;;;;;;5036452;28;20036;-64
2023/01/06 10:38:36;;;;;;;7.78;1.50;;;17.50;99.90;;;;;;5037957;28;20482;-64
2023/01/06 10:41:40;;;;;;;8.80;1.63;;;17.50;99.90;;;;;;5036230;28;20032;-66
2023/01/06 10:44:12;;;;;;;7.22;2.13;;;17.50;99.90;;;;;;5032737;28;20579;-65
2023/01/06 10:46:44;;;;;;;11.10;2.40;;;17.40;99.90;;;;;;5033488;28;20108;-66
2023/01/06 10:49:21;;;;;;;11.07;1.80;;;17.40;99.90;;;;;;5038123;28;20533;-66
2023/01/06 10:52:01;;;;;;;8.40;1.42;;;17.30;99.90;;;;;;5039938;28;20037;-65
2023/01/06 10:54:35;;;;;;;12.77;2.83;;;17.30;99.90;;;;;;5038766;28;20070;-67
2023/01/06 10:57:31;;;;;;;15.02;1.65;;;17.20;99.90;;;;;;5036024;28;20490;-65
2023/01/06 11:00:23;;;;;;;10.85;1.70;;;17.10;99.90;;;;;;5038459;28;20049;-65
2023/01/06 11:03:02;;;;;;;10.57;2.13;;;16.90;99.90;;;;;;5038924;28;20118;-64
2023/01/06 11:05:32;;;;;;;11.48;2.70;;;16.90;99.90;;;;;;5036742;28;20437;-66
2023/01/06 11:08:06;;;;;;;10.57;2.70;;;16.80;99.90;;;;;;5035943;28;20355;-68
2023/01/06 11:10:50;;;;;;;15.57;2.72;;;16.90;99.90;;;;;;5036794;28;20087;-67
2023/01/06 11:13:30;;;;;;;13.30;2.03;;;16.90;99.90;;;;;;5036679;28;20144;-65
2023/01/06 11:16:01;;;;;;;10.30;1.60;;;17.00;99.90;;;;;;5032032;28;20029;-67
2023/01/06 11:18:33;;;;;;;13.82;2.10;;;17.10;99.90;;;;;;5037453;28;20029;-66
2023/01/06 11:21:08;;;;;;;16.25;2.10;;;17.10;99.90;;;;;;5030702;28;20057;-65
2023/01/06 11:23:38;;;;;;;14.75;2.10;;;17.20;99.90;;;;;;5029592;28;20028;-65
2023/01/06 11:26:26;;;;;;;12.27;1.58;;;17.20;99.90;;;;;;5032089;28;20394;-66
2023/01/06 11:28:55;;;;;;;12.60;2.28;;;17.20;99.90;;;;;;5036008;28;20029;-66
2023/01/06 11:31:26;;;;;;;11.07;1.88;;;17.30;99.90;;;;;;5029238;28;20041;-66
2023/01/06 11:33:59;;;;;;;10.43;2.20;;;17.30;99.90;;;;;;5038234;28;20097;-67
2023/01/06 11:36:30;;;;;;;9.65;1.88;;;17.30;99.90;;;;;;5037640;28;20685;-67
2023/01/06 11:39:12;;;;;;;14.90;2.67;;;17.30;99.90;;;;;;5044297;28;20367;-66
2023/01/06 11:41:45;;;;;;;5.45;1.42;;;17.20;99.90;;;;;;5040684;28;20037;-66
2023/01/06 11:44:18;;;;;;;15.27;3.22;;;17.10;99.90;;;;;;5038603;28;20025;-66
2023/01/06 11:46:57;;;;;;;8.02;1.63;;;17.00;99.90;;;;;;5036470;28;20398;-65
2023/01/06 11:49:34;;;;;;;8.30;1.73;;;16.90;99.90;;;;;;5037085;28;20045;-66
2023/01/06 11:52:21;;;;;;;19.10;2.30;;;17.00;99.90;;;;;;5033990;28;20025;-66
2023/01/06 11:55:09;;;;;;;11.32;1.88;;;16.90;99.90;;;;;;5042021;28;20124;-67
2023/01/06 11:58:15;;;;;;;8.88;2.65;;;17.00;99.90;;;;;;5038312;28;20086;-66
2023/01/06 12:00:55;;;;;;;15.93;2.20;;;17.00;99.90;;;;;;5041313;28;20029;-66
2023/01/06 12:03:35;;;;;;;17.35;2.17;;;17.00;99.90;;;;;;5048054;28;20032;-66
2023/01/06 12:06:24;;;;;;;16.30;2.42;;;17.00;99.90;;;;;;5042949;28;20021;-65
2023/01/06 12:09:12;;;;;;;9.13;1.95;;;17.00;99.90;;;;;;5034021;28;20159;-67
2023/01/06 12:11:47;;;;;;;11.60;2.25;;;16.80;99.90;;;;;;5032280;28;20079;-66
2023/01/06 12:14:17;;;;;;;13.00;2.42;;;16.70;99.90;;;;;;5036031;28;20143;-67
2023/01/06 12:17:22;;;;;;;9.10;1.98;;;16.70;99.90;;;;;;5035344;28;20461;-66
2023/01/06 12:19:56;;;;;;;13.88;2.45;;;16.60;99.90;;;;;;5031381;28;20100;-67
2023/01/06 12:23:04;;;;;;;15.95;3.08;;;16.60;99.90;;;;;;5031703;28;20033;-67
2023/01/06 12:25:39;;;;;;;9.82;2.40;;;16.60;99.90;;;;;;5027960;28;20037;-65
2023/01/06 12:28:13;;;;;;;8.98;2.70;;;16.50;99.90;;;;;;5032353;28;20033;-66
2023/01/06 12:30:46;;;;;;;9.50;1.92;;;16.40;99.90;;;;;;5035778;28;20045;-67
2023/01/06 12:33:44;;;;;;;11.80;2.70;;;16.30;99.90;;;;;;5033055;28;20029;-66
2023/01/06 12:36:22;;;;;;;9.98;2.50;;;16.30;99.90;;;;;;5029932;28;20482;-67
2023/01/06 12:39:04;;;;;;;7.55;2.17;;;16.20;99.90;;;;;;5030524;28;20030;-65
2023/01/06 12:41:37;;;;;;;11.27;2.75;;;16.20;99.90;;;;;;5034609;28;20403;-66
2023/01/06 12:44:14;;;;;;;9.52;1.40;;;16.20;99.90;;;;;;5030920;28;20029;-65
2023/01/06 12:47:10;;;;;;;11.20;2.70;;;16.20;99.90;;;;;;5030911;28;20087;-66
2023/01/06 12:50:01;;;;;;;11.18;2.20;;;16.30;99.90;;;;;;5032881;28;20071;-66
2023/01/06 12:52:34;;;;;;;12.27;2.17;;;16.30;99.90;;;;;;5033328;28;20024;-67
2023/01/06 12:55:02;;;;;;;18.00;3.22;;;16.30;99.90;;;;;;5032962;28;20029;-65
2023/01/06 12:57:43;;;;;;;16.02;2.97;;;16.40;99.90;;;;;;5040136;28;20068;-65
2023/01/06 13:00:31;;;;;;;9.95;1.85;;;16.40;99.90;;;;;;5044609;28;20124;-67
2023/01/06 13:03:24;;;;;;;14.95;2.30;;;16.40;99.90;;;;;;5031874;28;20385;-65
2023/01/06 13:06:29;;;;;;;19.23;3.20;;;16.40;99.90;;;;;;5034241;28;20025;-66
2023/01/06 13:09:18;;;;;;;7.45;1.70;;;16.40;99.90;;;;;;5044993;28;20037;-67
2023/01/06 13:12:13;;;;;;;11.45;2.38;;;16.40;99.90;;;;;;5040170;28;20083;-66
2023/01/06 13:14:40;;;;;;;11.70;1.92;;;16.40;99.90;;;;;;5033574;28;20076;-67
2023/01/06 13:17:32;;;;;;;10.05;1.58;;;16.40;99.90;;;;;;5038005;28;20107;-67
2023/01/06 13:20:04;;;;;;;8.15;1.92;;;16.40;99.90;;;;;;5031162;28;20025;-66
2023/01/06 13:22:43;;;;;;;9.65;2.10;;;16.40;99.90;;;;;;5048422;28;20036;-67
2023/01/06 13:25:20;;;;;;;10.88;2.10;;;16.30;99.90;;;;;;5049123;28;20062;-66
2023/01/06 13:27:47;;;;;;;13.95;2.30;;;16.30;99.90;;;;;;5032350;28;20029;-66